Time;durP1;ratioP1;P1;durP2;ratioP2;P2;SDS_P1;SDS_P2;PMS_P1;PMS_P2;Temp;Humidity;BMP_temperature;BMP_pressure;BME280_temperature;BME280_humidity;BME280_pressure;Samples;Min_cycle;Max_cycle;Signal;HPM_P1;HPM_P2
2023/10/17 00:01:54;;;;;;;1999.90;999.90;;;;;;;14.54;60.79;101973.22;10373309;28;20078;-66
2023/10/17 00:07:02;;;;;;;1999.90;999.90;;;;;;;14.92;59.72;101971.09;10358378;28;20103;-66
2023/10/17 00:17:08;;;;;;;1999.90;999.90;;;;;;;14.98;59.74;101989.22;10373229;28;20136;-66
2023/10/17 00:22:10;;;;;;;1999.90;999.90;;;;;;;14.52;61.26;101975.09;10372513;28;20058;-66
2023/10/17 00:27:13;;;;;;;1999.90;999.90;;;;;;;14.80;60.76;101971.78;10355056;28;20407;-66
2023/10/17 00:32:15;;;;;;;1999.90;999.90;;;;;;;14.50;62.18;101968.09;10372865;28;20046;-66
2023/10/17 00:37:19;;;;;;;1999.90;999.90;;;;;;;14.74;60.86;101972.97;10372360;28;20058;-66
2023/10/17 00:42:29;;;;;;;1999.90;999.90;;;;;;;14.49;61.30;101968.19;10372559;28;20050;-66
2023/10/17 00:47:32;;;;;;;1999.90;999.90;;;;;;;14.89;61.44;101970.41;10356299;28;20083;-66
2023/10/17 00:52:34;;;;;;;1999.90;999.90;;;;;;;14.58;61.96;101966.84;10354869;28;20060;-66
2023/10/17 00:57:37;;;;;;;1999.90;999.90;;;;;;;14.40;62.08;101950.28;10353175;28;20563;-66
2023/10/17 01:02:45;;;;;;;1999.90;999.90;;;;;;;14.46;62.38;101955.22;10354633;28;20133;-66
2023/10/17 01:07:47;;;;;;;1999.90;999.90;;;;;;;14.53;62.38;101947.81;10371888;28;20054;-66
2023/10/17 01:12:53;;;;;;;1999.90;999.90;;;;;;;14.45;61.67;101940.31;10370988;28;20064;-67
2023/10/17 01:18:03;;;;;;;1999.90;999.90;;;;;;;14.76;60.90;101928.94;10371428;28;20091;-66
2023/10/17 01:23:07;;;;;;;1999.90;999.90;;;;;;;14.78;60.92;101929.69;10355633;28;20099;-66
2023/10/17 01:28:10;;;;;;;1999.90;999.90;;;;;;;14.28;63.16;101934.19;10353995;28;20149;-66
2023/10/17 01:33:12;;;;;;;1999.90;999.90;;;;;;;14.76;62.29;101943.88;10371470;28;20081;-66
2023/10/17 01:38:17;;;;;;;1999.90;999.90;;;;;;;14.74;60.88;101949.25;10370505;28;20054;-66
2023/10/17 01:43:19;;;;;;;1999.90;999.90;;;;;;;14.62;62.09;101945.53;10369995;28;20482;-66
2023/10/17 01:48:23;;;;;;;1999.90;999.90;;;;;;;14.79;60.08;101951.63;10369878;28;20049;-66
2023/10/17 01:53:27;;;;;;;1999.90;999.90;;;;;;;14.39;62.50;101936.25;10352995;28;20093;-66
2023/10/17 01:58:30;;;;;;;1999.90;999.90;;;;;;;14.64;62.04;101930.50;10370136;28;20074;-66
2023/10/17 02:03:32;;;;;;;1999.90;999.90;;;;;;;14.83;60.71;101924.16;10370029;28;20046;-66
2023/10/17 02:08:36;;;;;;;1999.90;999.90;;;;;;;14.30;62.83;101924.41;10369760;28;20050;-66
2023/10/17 02:13:41;;;;;;;1999.90;999.90;;;;;;;14.78;60.83;101913.03;10369732;28;20092;-66
2023/10/17 02:18:44;;;;;;;1999.90;999.90;;;;;;;14.34;62.60;101904.03;10369480;28;20052;-66
2023/10/17 02:23:51;;;;;;;1999.90;999.90;;;;;;;14.63;61.16;101907.69;10352012;28;20106;-66
2023/10/17 02:28:53;;;;;;;1999.90;999.90;;;;;;;14.33;61.94;101901.50;10352391;28;20125;-66
2023/10/17 02:33:59;;;;;;;1999.90;999.90;;;;;;;14.79;61.53;101901.53;10351766;28;20054;-66
2023/10/17 02:39:02;;;;;;;1999.90;999.90;;;;;;;14.46;61.38;101900.72;10351296;28;20050;-66
2023/10/17 02:44:04;;;;;;;1999.90;999.90;;;;;;;14.25;61.78;101900.13;10350966;28;20417;-67
2023/10/17 02:49:07;;;;;;;1999.90;999.90;;;;;;;14.05;62.71;101901.22;10368718;28;20042;-66
2023/10/17 02:54:14;;;;;;;1999.90;999.90;;;;;;;14.34;61.48;101904.03;10368627;28;20052;-65
2023/10/17 02:59:17;;;;;;;1999.90;999.90;;;;;;;14.40;61.14;101908.94;10352274;28;20123;-66
2023/10/17 03:04:26;;;;;;;1999.90;999.90;;;;;;;14.12;61.99;101909.63;10335083;28;20074;-66
2023/10/17 03:15:37;;;;;;;1999.90;999.90;;;;;;;14.23;61.43;101915.16;10367503;28;20053;-66
2023/10/17 03:20:04;;;;;;;1999.90;999.90;;;;;;;14.62;60.68;101910.41;10371384;28;20486;-66
2023/10/17 03:25:19;;;;;;;1999.90;999.90;;;;;;;14.35;61.60;101903.09;10375029;28;20050;-66
2023/10/17 03:30:21;;;;;;;1999.90;999.90;;;;;;;13.93;63.01;101907.97;10374950;28;20050;-66
2023/10/17 03:35:25;;;;;;;1999.90;999.90;;;;;;;14.82;60.41;101910.13;10374471;28;20144;-66
2023/10/17 03:40:34;;;;;;;1999.90;999.90;;;;;;;14.18;61.64;101897.91;10374523;28;20052;-66
2023/10/17 03:45:43;;;;;;;1999.90;999.90;;;;;;;14.33;61.73;101902.34;10374302;28;20407;-66
2023/10/17 03:55:49;;;;;;;1999.90;999.90;;;;;;;14.03;63.03;101903.06;10357114;28;20058;-66
2023/10/17 04:00:59;;;;;;;1999.90;999.90;;;;;;;14.62;62.31;101905.16;10356502;28;20050;-65
2023/10/17 04:06:18;;;;;;;1999.90;999.90;;;;;;;14.80;60.60;101892.72;10356365;28;20099;-66
2023/10/17 04:16:39;;;;;;;1999.90;999.90;;;;;;;14.86;61.04;101911.66;10355389;28;20414;-67
2023/10/17 04:27:31;;;;;;;1999.90;999.90;;;;;;;14.11;62.02;101916.69;10373110;28;20046;-66
2023/10/17 04:32:38;;;;;;;1999.90;999.90;;;;;;;14.91;60.44;101918.44;10370956;28;20505;-66
2023/10/17 04:37:44;;;;;;;1999.90;999.90;;;;;;;14.96;60.68;101911.09;10372213;28;20064;-67
2023/10/17 04:42:47;;;;;;;1999.90;999.90;;;;;;;14.63;61.55;101923.50;10372619;28;20054;-66
2023/10/17 04:48:11;;;;;;;1999.90;999.90;;;;;;;15.09;60.81;101916.53;10371881;28;20060;-66
2023/10/17 04:53:25;;;;;;;1999.90;999.90;;;;;;;14.97;60.54;101910.19;10372299;28;20089;-67
2023/10/17 04:58:40;;;;;;;1999.90;999.90;;;;;;;14.64;61.89;101905.91;10371445;28;20458;-66
2023/10/17 05:03:50;;;;;;;1999.90;999.90;;;;;;;14.43;62.46;101907.94;10371976;28;20069;-67
2023/10/17 06:16:51;;;;;;;1999.90;999.90;;;;;;;15.07;60.46;101897.31;10372186;28;20057;-66
2023/10/17 06:18:49;;;;;;;1999.90;999.90;;;;;;;14.55;62.23;101895.88;10541345;28;20127;-64
2023/10/17 06:24:06;;;;;;;1999.90;999.90;;;;;;;14.00;63.38;101907.66;10540717;28;20047;-64
2023/10/17 06:34:18;;;;;;;1999.90;999.90;;;;;;;14.51;61.34;101913.63;10506937;28;20054;-64
2023/10/17 06:39:23;;;;;;;1999.90;999.90;;;;;;;14.37;61.68;101910.91;10522383;28;20048;-65
2023/10/17 06:44:26;;;;;;;1999.90;999.90;;;;;;;14.05;62.95;101921.44;10522981;28;20076;-64
2023/10/17 06:49:46;;;;;;;1999.90;999.90;;;;;;;14.17;62.98;101915.50;10540335;28;20044;-65
2023/10/17 06:54:50;;;;;;;1999.90;999.90;;;;;;;13.92;63.13;101918.63;10529501;28;20131;-64
2023/10/17 06:59:54;;;;;;;1999.90;999.90;;;;;;;14.30;61.96;101913.03;10548444;28;20127;-64
2023/10/17 07:05:00;;;;;;;1999.90;999.90;;;;;;;14.03;61.93;101915.41;10530567;28;20047;-64
2023/10/17 07:10:24;;;;;;;1999.90;999.90;;;;;;;14.01;62.03;101912.84;10530696;28;20048;-64
2023/10/17 07:15:29;;;;;;;1999.90;999.90;;;;;;;14.04;61.52;101919.75;10533082;28;20399;-64
2023/10/17 07:25:56;;;;;;;1999.90;999.90;;;;;;;14.62;61.62;101929.69;10547680;28;20058;-64
2023/10/17 07:31:00;;;;;;;1999.90;999.90;;;;;;;14.13;62.10;101919.22;10547304;28;20048;-64
2023/10/17 07:36:05;;;;;;;1999.90;999.90;;;;;;;14.21;63.25;101924.94;10529444;28;20048;-65
2023/10/17 07:41:32;;;;;;;1999.90;999.90;;;;;;;14.61;62.84;101922.75;10546283;28;20055;-64
2023/10/17 07:46:34;;;;;;;1999.90;999.90;;;;;;;15.57;61.66;101925.94;10545678;28;20438;-65
2023/10/17 07:51:42;;;;;;;1999.90;999.90;;;;;;;15.66;61.66;101910.50;10529094;28;20056;-65
2023/10/17 07:56:53;;;;;;;1999.90;999.90;;;;;;;15.72;63.02;101912.75;10529252;28;20044;-65
2023/10/17 08:02:00;;;;;;;1999.90;999.90;;;;;;;16.50;61.33;101907.00;10527631;28;20062;-65
2023/10/17 08:07:03;;;;;;;1999.90;999.90;;;;;;;16.57;59.26;101908.28;10545785;28;20044;-65
2023/10/17 08:12:08;;;;;;;1999.90;999.90;;;;;;;17.94;59.19;101899.06;10545160;28;20423;-65
2023/10/17 08:17:12;;;;;;;1999.90;999.90;;;;;;;18.31;58.65;101893.75;10544963;28;20163;-66
2023/10/17 08:22:17;;;;;;;1999.90;999.90;;;;;;;18.45;57.01;101898.03;10528212;28;20136;-67
2023/10/17 08:37:30;;;;;;;1999.90;999.90;;;;;;;18.34;57.35;101890.88;10544121;28;20400;-67
2023/10/17 08:42:36;;;;;;;1999.90;999.90;;;;;;;20.13;55.51;101885.22;10527238;28;20150;-67
2023/10/17 08:47:42;;;;;;;1999.90;999.90;;;;;;;20.95;54.58;101882.03;10510487;28;20090;-67
2023/10/17 08:52:45;;;;;;;1999.90;999.90;;;;;;;21.34;52.71;101887.56;10475599;28;20472;-68
2023/10/17 08:57:47;;;;;;;1999.90;999.90;;;;;;;20.83;52.77;101891.06;10476023;28;20072;-68
2023/10/17 09:03:02;;;;;;;1999.90;999.90;;;;;;;20.68;50.73;101881.66;10459869;28;20568;-67
2023/10/17 09:08:11;;;;;;;1999.90;999.90;;;;;;;21.74;51.06;101885.97;10460130;28;20445;-67
2023/10/17 09:18:31;;;;;;;1999.90;999.90;;;;;;;21.26;50.99;101879.41;10459069;28;20045;-67
2023/10/17 09:23:38;;;;;;;1999.90;999.90;;;;;;;21.31;51.89;101884.34;10474299;28;20049;-67
2023/10/17 09:28:41;;;;;;;1999.90;999.90;;;;;;;22.91;47.38;101880.78;10474424;28;20049;-68
2023/10/17 09:33:44;;;;;;;1999.90;999.90;;;;;;;21.47;49.22;101897.22;10459128;28;20072;-67
2023/10/17 09:38:47;;;;;;;1999.90;999.90;;;;;;;22.06;47.16;101898.28;10474163;28;20048;-68
2023/10/17 09:43:53;;;;;;;1999.90;999.90;;;;;;;24.00;47.27;101899.03;10458807;28;20064;-68
2023/10/17 09:49:00;;;;;;;1999.90;999.90;;;;;;;23.19;46.23;101897.78;10458022;28;20120;-68
2023/10/17 09:54:06;;;;;;;1999.90;999.90;;;;;;;21.84;47.32;101894.00;10473470;28;20068;-68
2023/10/17 09:59:13;;;;;;;1999.90;999.90;;;;;;;24.19;44.97;101884.69;10457858;28;20056;-68
2023/10/17 10:04:18;;;;;;;1999.90;999.90;;;;;;;23.25;44.33;101896.38;10473453;28;20055;-68
2023/10/17 10:09:26;;;;;;;1999.90;999.90;;;;;;;23.08;42.34;101895.28;10473693;28;20049;-69
2023/10/17 10:14:33;;;;;;;1999.90;999.90;;;;;;;23.74;44.63;101890.84;10472915;28;20053;-69
2023/10/17 10:19:41;;;;;;;1999.90;999.90;;;;;;;25.34;41.55;101893.69;10458017;28;20079;-69
2023/10/17 10:24:46;;;;;;;1999.90;999.90;;;;;;;24.19;40.94;101882.03;10457486;28;20049;-67
2023/10/17 10:29:53;;;;;;;1999.90;999.90;;;;;;;24.54;41.83;101880.31;10472631;28;20048;-68
2023/10/17 10:34:56;;;;;;;1999.90;999.90;;;;;;;23.83;44.37;101871.25;10457158;28;20073;-69
2023/10/17 10:40:32;;;;;;;1999.90;999.90;;;;;;;25.45;40.34;101865.78;10472352;28;20045;-68
2023/10/17 10:45:36;;;;;;;1999.90;999.90;;;;;;;25.49;39.78;101863.63;10455072;28;20084;-69
2023/10/17 10:50:42;;;;;;;1999.90;999.90;;;;;;;22.22;42.59;101858.56;10478564;28;20051;-69
2023/10/17 10:56:00;;;;;;;1999.90;999.90;;;;;;;25.66;40.79;101851.13;10521472;28;20073;-69
2023/10/17 11:01:07;;;;;;;1999.90;999.90;;;;;;;25.47;40.18;101850.38;10521961;28;20047;-69
2023/10/17 11:06:11;;;;;;;1999.90;999.90;;;;;;;24.77;41.18;101837.88;10539847;28;20086;-69
2023/10/17 11:11:14;;;;;;;1999.90;999.90;;;;;;;24.68;41.84;101828.13;10539575;28;20086;-70
2023/10/17 11:16:19;;;;;;;1999.90;999.90;;;;;;;25.19;40.80;101818.38;10538846;28;20105;-69
2023/10/17 11:21:23;;;;;;;1999.90;999.90;;;;;;;26.24;39.72;101801.13;10521674;28;20132;-69
2023/10/17 11:26:29;;;;;;;1999.90;999.90;;;;;;;25.47;39.61;101812.84;10521520;28;20044;-69
2023/10/17 11:31:35;;;;;;;1999.90;999.90;;;;;;;25.78;40.04;101807.75;10538653;28;20495;-69
2023/10/17 11:36:45;;;;;;;1999.90;999.90;;;;;;;24.39;40.96;101790.88;10521257;28;20134;-69
2023/10/17 11:41:55;;;;;;;1999.90;999.90;;;;;;;23.95;40.12;101791.66;10526884;28;20047;-69
2023/10/17 11:47:01;;;;;;;1999.90;999.90;;;;;;;24.02;41.87;101782.00;10547319;28;20082;-68
2023/10/17 11:52:09;;;;;;;1999.90;999.90;;;;;;;24.33;41.06;101770.94;10546360;28;20052;-68
2023/10/17 11:57:13;;;;;;;1999.90;999.90;;;;;;;22.71;42.48;101764.34;10528529;28;20044;-69
2023/10/17 12:02:17;;;;;;;1999.90;999.90;;;;;;;24.22;40.78;101755.13;10527817;28;20484;-69
2023/10/17 12:07:19;;;;;;;1999.90;999.90;;;;;;;24.13;41.20;101751.53;10546084;28;20051;-69
2023/10/17 12:12:22;;;;;;;1999.90;999.90;;;;;;;23.93;40.93;101754.34;10545787;28;20048;-69
2023/10/17 12:17:26;;;;;;;1999.90;999.90;;;;;;;23.62;40.92;101764.56;10544923;28;20407;-69
2023/10/17 12:22:31;;;;;;;1999.90;999.90;;;;;;;24.26;40.97;101761.84;10545257;28;20477;-69
2023/10/17 12:27:33;;;;;;;1999.90;999.90;;;;;;;22.08;43.52;101765.66;10545285;28;20133;-68
2023/10/17 12:32:36;;;;;;;1999.90;999.90;;;;;;;22.46;42.95;101761.31;10544360;28;20515;-68
2023/10/17 12:37:43;;;;;;;1999.90;999.90;;;;;;;23.12;43.53;101749.75;10526220;28;20507;-68
2023/10/17 12:42:46;;;;;;;1999.90;999.90;;;;;;;22.31;41.95;101725.38;10527484;28;20098;-68
2023/10/17 12:47:49;;;;;;;1999.90;999.90;;;;;;;22.86;42.22;101708.66;10544955;28;20048;-68
2023/10/17 12:52:51;;;;;;;1999.90;999.90;;;;;;;21.40;43.84;101698.91;10524686;28;20060;-68
2023/10/17 12:57:54;;;;;;;1999.90;999.90;;;;;;;20.84;44.23;101694.94;10543802;28;20050;-68
2023/10/17 13:02:56;;;;;;;1999.90;999.90;;;;;;;21.08;45.23;101671.50;10543113;28;20488;-68
2023/10/17 13:07:58;;;;;;;1999.90;999.90;;;;;;;21.18;43.61;101657.38;10543739;28;20055;-67
2023/10/17 13:13:01;;;;;;;1999.90;999.90;;;;;;;21.10;46.55;101669.53;10542739;28;20539;-68
2023/10/17 13:18:07;;;;;;;1999.90;999.90;;;;;;;19.87;45.74;101669.41;10543031;28;20079;-68
2023/10/17 13:23:11;;;;;;;1999.90;999.90;;;;;;;19.59;46.17;101660.19;10543513;28;20134;-67
2023/10/17 13:28:16;;;;;;;1999.90;999.90;;;;;;;20.05;46.72;101656.38;10542156;28;20412;-67
2023/10/17 13:33:21;;;;;;;1999.90;999.90;;;;;;;19.75;47.06;101644.69;10508463;28;20052;-68
2023/10/17 13:38:23;;;;;;;1999.90;999.90;;;;;;;20.44;45.85;101638.00;10541965;28;20079;-67
2023/10/17 13:43:27;;;;;;;1999.90;999.90;;;;;;;20.11;46.82;101655.88;10542125;28;20058;-67
2023/10/17 13:48:29;;;;;;;1999.90;999.90;;;;;;;20.48;46.64;101642.09;10541276;28;20048;-67
2023/10/17 13:53:36;;;;;;;1999.90;999.90;;;;;;;19.48;46.93;101640.66;10539662;28;20541;-67
2023/10/17 13:58:41;;;;;;;1999.90;999.90;;;;;;;20.01;47.01;101647.00;10540402;28;20071;-67
2023/10/17 14:03:44;;;;;;;1999.90;999.90;;;;;;;19.35;47.97;101633.81;10521282;28;20055;-67
2023/10/17 14:08:47;;;;;;;1999.90;999.90;;;;;;;19.81;48.32;101638.88;10521524;28;20095;-67
2023/10/17 14:13:49;;;;;;;1999.90;999.90;;;;;;;19.68;48.23;101639.00;10521550;28;20079;-68
2023/10/17 14:19:13;;;;;;;1999.90;999.90;;;;;;;18.82;47.63;101622.03;10521274;28;20052;-67
2023/10/17 14:24:27;;;;;;;1999.90;999.90;;;;;;;19.88;47.77;101615.28;10539018;28;20127;-67
2023/10/17 14:29:29;;;;;;;1999.90;999.90;;;;;;;19.53;47.45;101608.41;10538505;28;20051;-67
2023/10/17 14:34:32;;;;;;;1999.90;999.90;;;;;;;19.67;47.83;101600.13;10538172;28;20072;-67
2023/10/17 14:39:37;;;;;;;1999.90;999.90;;;;;;;20.08;47.68;101600.31;10538474;28;20439;-67
2023/10/17 14:44:41;;;;;;;1999.90;999.90;;;;;;;19.53;46.49;101602.25;10538523;28;20052;-67
2023/10/17 14:49:46;;;;;;;1999.90;999.90;;;;;;;19.58;47.63;101595.56;10499474;28;1112659;-67
2023/10/17 14:54:48;;;;;;;1999.90;999.90;;;;;;;18.90;46.48;101597.59;10522414;28;20089;-66
2023/10/17 14:59:50;;;;;;;1999.90;999.90;;;;;;;19.49;47.30;101593.69;10521402;28;20048;-67
2023/10/17 15:04:53;;;;;;;1999.90;999.90;;;;;;;19.25;47.55;101586.78;10540004;28;20052;-67
2023/10/17 15:09:56;;;;;;;1999.90;999.90;;;;;;;19.82;46.74;101576.78;10539473;28;20052;-67
2023/10/17 15:14:58;;;;;;;1999.90;999.90;;;;;;;19.75;47.60;101578.25;10542246;28;20063;-66
2023/10/17 15:20:00;;;;;;;1999.90;999.90;;;;;;;19.13;48.55;101571.84;10547113;28;20048;-66
2023/10/17 15:25:03;;;;;;;1999.90;999.90;;;;;;;19.15;48.74;101577.88;10547059;28;20106;-67
2023/10/17 15:30:08;;;;;;;1999.90;999.90;;;;;;;18.94;48.68;101591.91;10546829;28;20542;-66
2023/10/17 15:35:18;;;;;;;1999.90;999.90;;;;;;;18.79;49.92;101594.94;10530556;28;20427;-67
2023/10/17 15:40:21;;;;;;;1999.90;999.90;;;;;;;18.46;50.01;101596.59;10546986;28;20052;-67
2023/10/17 15:45:24;;;;;;;1999.90;999.90;;;;;;;18.79;49.33;101589.63;10546907;28;20048;-67
2023/10/17 15:50:26;;;;;;;1999.90;999.90;;;;;;;18.72;50.57;101591.91;10528627;28;20048;-66
2023/10/17 15:55:29;;;;;;;1999.90;999.90;;;;;;;18.48;49.97;101579.63;10546498;28;20044;-66
2023/10/17 16:00:31;;;;;;;1999.90;999.90;;;;;;;18.72;50.12;101578.66;10545491;28;20052;-66
2023/10/17 16:05:33;;;;;;;1999.90;999.90;;;;;;;18.53;50.80;101581.94;10545920;28;20394;-66
2023/10/17 16:10:35;;;;;;;1999.90;999.90;;;;;;;17.55;52.23;101580.50;10545454;28;20048;-67
2023/10/17 16:15:41;;;;;;;1999.90;999.90;;;;;;;18.25;51.37;101573.47;10527140;28;20075;-67
2023/10/17 16:20:43;;;;;;;1999.90;999.90;;;;;;;18.00;51.45;101593.06;10545483;28;20048;-66
2023/10/17 16:25:48;;;;;;;1999.90;999.90;;;;;;;17.79;52.72;101580.47;10545145;28;20048;-67
2023/10/17 16:30:51;;;;;;;1999.90;999.90;;;;;;;17.21;53.79;101598.00;10545101;28;20151;-66
2023/10/17 16:36:00;;;;;;;1999.90;999.90;;;;;;;17.11;55.65;101597.84;10544253;28;20066;-66
2023/10/17 16:41:03;;;;;;;1999.90;999.90;;;;;;;16.50;56.13;101587.16;10526151;28;20507;-66
2023/10/17 16:46:05;;;;;;;1999.90;999.90;;;;;;;16.04;57.54;101603.53;10544515;28;20052;-66
2023/10/17 16:51:08;;;;;;;1999.90;999.90;;;;;;;16.03;57.13;101604.50;10543725;28;20420;-66
2023/10/17 16:56:10;;;;;;;1999.90;999.90;;;;;;;16.29;57.14;101600.03;10543523;28;20052;-66
2023/10/17 17:01:13;;;;;;;1999.90;999.90;;;;;;;15.97;57.14;101595.19;10543210;28;20485;-66
2023/10/17 17:06:15;;;;;;;1999.90;999.90;;;;;;;15.50;58.37;101610.56;10543025;28;20051;-66
2023/10/17 17:11:18;;;;;;;1999.90;999.90;;;;;;;15.57;58.65;101605.72;10543654;28;20123;-66
2023/10/17 17:16:21;;;;;;;1999.90;999.90;;;;;;;15.91;57.71;101608.81;10543455;28;20097;-66
2023/10/17 17:21:24;;;;;;;1999.90;999.90;;;;;;;15.77;57.59;101602.66;10542988;28;20047;-66
2023/10/17 17:26:26;;;;;;;1999.90;999.90;;;;;;;15.74;58.26;101600.16;10542278;28;20539;-66
2023/10/17 17:31:29;;;;;;;1999.90;999.90;;;;;;;16.15;56.90;101593.94;10542679;28;20052;-66
2023/10/17 17:36:32;;;;;;;1999.90;999.90;;;;;;;16.25;56.79;101580.09;10541296;28;20488;-66
2023/10/17 17:41:37;;;;;;;1999.90;999.90;;;;;;;16.44;57.50;101577.00;10542405;28;20043;-66
2023/10/17 17:46:40;;;;;;;1999.90;999.90;;;;;;;15.30;58.71;101593.38;10542015;28;20123;-67
2023/10/17 17:51:42;;;;;;;1999.90;999.90;;;;;;;16.00;57.44;101586.19;10540942;28;20052;-66
2023/10/17 17:56:45;;;;;;;1999.90;999.90;;;;;;;15.82;57.80;101577.72;10541038;28;20086;-66
2023/10/17 18:01:48;;;;;;;1999.90;999.90;;;;;;;16.23;56.93;101576.72;10522838;28;20064;-66
2023/10/17 18:06:52;;;;;;;1999.90;999.90;;;;;;;15.66;58.80;101581.34;10469626;22;20383;-60
2023/10/17 18:11:54;;;;;;;1999.90;999.90;;;;;;;15.66;58.12;101589.28;10369361;28;20107;-60
2023/10/17 18:16:57;;;;;;;1999.90;999.90;;;;;;;14.99;59.50;101595.34;10351921;28;20486;-60
2023/10/17 18:21:59;;;;;;;1999.90;999.90;;;;;;;14.97;59.48;101584.03;10369517;28;20045;-60
2023/10/17 18:27:01;;;;;;;1999.90;999.90;;;;;;;14.94;59.47;101578.97;10370006;28;20056;-60
2023/10/17 18:32:04;;;;;;;1999.90;999.90;;;;;;;14.66;60.24;101578.06;10369376;28;20124;-60
2023/10/17 18:37:07;;;;;;;1999.90;999.90;;;;;;;14.61;59.95;101572.25;10368633;28;20054;-60
2023/10/17 18:42:09;;;;;;;1999.90;999.90;;;;;;;14.77;59.81;101566.00;10369003;28;20053;-61
2023/10/17 18:47:12;;;;;;;1999.90;999.90;;;;;;;14.87;59.23;101561.84;10350980;28;20401;-60
2023/10/17 18:52:14;;;;;;;1999.90;999.90;;;;;;;14.91;59.32;101558.09;10349729;28;20483;-60
2023/10/17 18:57:16;;;;;;;1999.90;999.90;;;;;;;14.77;59.72;101542.28;10350728;28;20410;-60
2023/10/17 19:02:19;;;;;;;1999.90;999.90;;;;;;;14.81;58.92;101542.00;10367850;28;20391;-60
2023/10/17 19:07:21;;;;;;;1999.90;999.90;;;;;;;15.19;60.44;101541.31;10347861;28;20114;-60
2023/10/17 19:12:24;;;;;;;1999.90;999.90;;;;;;;15.19;58.81;101548.38;10367144;28;20050;-60
2023/10/17 19:17:35;;;;;;;1999.90;999.90;;;;;;;14.83;60.26;101544.53;10368307;28;20068;-60
2023/10/17 19:22:41;;;;;;;1999.90;999.90;;;;;;;14.33;60.44;101538.81;10350688;28;20108;-60
2023/10/17 19:27:44;;;;;;;1999.90;999.90;;;;;;;14.49;60.53;101550.09;10367940;28;20078;-60
2023/10/17 19:32:47;;;;;;;1999.90;999.90;;;;;;;14.24;61.64;101545.50;10367807;28;20073;-60
2023/10/17 19:37:49;;;;;;;1999.90;999.90;;;;;;;14.26;60.77;101532.22;10367019;28;20543;-60
2023/10/17 19:42:51;;;;;;;1999.90;999.90;;;;;;;14.30;61.41;101529.28;10367445;28;20049;-60
2023/10/17 19:47:56;;;;;;;1999.90;999.90;;;;;;;14.41;59.90;101523.38;10367364;28;20057;-60
2023/10/17 19:53:02;;;;;;;1999.90;999.90;;;;;;;14.06;61.55;101515.00;10367299;28;20054;-60
2023/10/17 19:58:06;;;;;;;1999.90;999.90;;;;;;;13.85;61.93;101515.38;10367577;28;20054;-60
2023/10/17 20:03:11;;;;;;;1999.90;999.90;;;;;;;14.17;61.21;101507.31;10372220;28;20050;-60
2023/10/17 20:08:14;;;;;;;1999.90;999.90;;;;;;;14.60;60.55;101507.28;10356760;28;20054;-60
2023/10/17 20:13:17;;;;;;;1999.90;999.90;;;;;;;13.81;62.00;101499.84;10373740;28;20100;-60
2023/10/17 20:18:19;;;;;;;1999.90;999.90;;;;;;;14.23;61.28;101495.53;10373474;28;20080;-60
2023/10/17 20:23:22;;;;;;;1999.90;999.90;;;;;;;14.41;59.97;101490.94;10373390;28;20046;-60
2023/10/17 20:28:24;;;;;;;1999.90;999.90;;;;;;;14.26;59.98;101488.28;10372610;28;20175;-60
2023/10/17 20:33:27;;;;;;;1999.90;999.90;;;;;;;14.08;59.90;101481.53;10355115;28;20410;-60
2023/10/17 20:38:29;;;;;;;1999.90;999.90;;;;;;;13.81;61.57;101473.53;10372316;28;20054;-60
2023/10/17 20:43:33;;;;;;;1999.90;999.90;;;;;;;14.27;59.98;101468.06;10354743;28;20060;-60
2023/10/17 20:48:35;;;;;;;1999.90;999.90;;;;;;;14.09;61.29;101470.91;10355101;28;20504;-60
2023/10/17 20:53:37;;;;;;;1999.90;999.90;;;;;;;13.89;60.74;101461.59;10339133;28;20091;-60
2023/10/17 20:58:40;;;;;;;1999.90;999.90;;;;;;;13.92;62.10;101460.56;10372086;28;20133;-60
2023/10/17 21:03:43;;;;;;;1999.90;999.90;;;;;;;14.03;61.40;101459.91;10372027;28;20133;-60
2023/10/17 21:08:45;;;;;;;1999.90;999.90;;;;;;;14.20;61.10;101453.59;10371655;28;20057;-60
2023/10/17 21:13:47;;;;;;;1999.90;999.90;;;;;;;14.43;59.60;101447.72;10370214;28;20050;-60
2023/10/17 21:18:50;;;;;;;1999.90;999.90;;;;;;;13.78;61.33;101434.22;10371488;28;20091;-60
2023/10/17 21:23:53;;;;;;;1999.90;999.90;;;;;;;14.09;62.47;101426.13;10371489;28;20054;-60
2023/10/17 21:28:55;;;;;;;1999.90;999.90;;;;;;;13.74;63.17;101431.78;10371371;28;20071;-60
2023/10/17 21:33:58;;;;;;;1999.90;999.90;;;;;;;13.77;61.58;101428.13;10370509;28;20482;-60
2023/10/17 21:39:00;;;;;;;1999.90;999.90;;;;;;;14.25;59.76;101414.66;10371223;28;20049;-60
2023/10/17 21:44:03;;;;;;;1999.90;999.90;;;;;;;13.90;60.85;101418.53;10370789;28;20128;-60
2023/10/17 21:49:08;;;;;;;1999.90;999.90;;;;;;;13.79;62.03;101409.63;10370070;28;20447;-60
2023/10/17 21:54:12;;;;;;;1999.90;999.90;;;;;;;14.24;60.08;101405.91;10369937;28;20498;-60
2023/10/17 21:59:15;;;;;;;1999.90;999.90;;;;;;;13.67;61.58;101390.16;10370443;28;20078;-60
2023/10/17 22:04:17;;;;;;;1999.90;999.90;;;;;;;13.69;63.06;101390.91;10370344;28;20049;-60
2023/10/17 22:09:20;;;;;;;1999.90;999.90;;;;;;;13.65;64.45;101392.88;10369673;28;20133;-60
2023/10/17 22:14:23;;;;;;;1999.90;999.90;;;;;;;14.21;61.50;101394.72;10352067;28;20444;-60
2023/10/17 22:19:26;;;;;;;1999.90;999.90;;;;;;;14.18;59.76;101382.59;10369745;28;20042;-60
2023/10/17 22:24:31;;;;;;;1999.90;999.90;;;;;;;14.34;61.14;101385.09;10352429;28;20110;-60
2023/10/17 22:29:55;;;;;;;1999.90;999.90;;;;;;;14.62;59.61;101373.63;10369391;28;20099;-60
2023/10/17 22:34:58;;;;;;;1999.90;999.90;;;;;;;14.30;61.88;101368.63;10351639;28;20072;-60
2023/10/17 22:40:00;;;;;;;1999.90;999.90;;;;;;;14.29;60.88;101374.03;10369143;28;20046;-60
2023/10/17 22:45:03;;;;;;;1999.90;999.90;;;;;;;13.57;62.32;101364.41;10368446;28;20533;-60
2023/10/17 22:50:10;;;;;;;1999.90;999.90;;;;;;;14.52;60.36;101353.22;10368972;28;20049;-60
2023/10/17 22:55:13;;;;;;;1999.90;999.90;;;;;;;14.30;59.88;101355.44;10368716;28;20054;-60
2023/10/17 23:00:19;;;;;;;1999.90;999.90;;;;;;;14.28;60.10;101349.44;10368552;28;20465;-60
2023/10/17 23:05:21;;;;;;;1999.90;999.90;;;;;;;14.25;60.13;101352.28;10368399;28;20078;-61
2023/10/17 23:10:24;;;;;;;1999.90;999.90;;;;;;;14.35;59.35;101338.53;10368473;28;20049;-60
2023/10/17 23:15:26;;;;;;;1999.90;999.90;;;;;;;13.81;60.50;101332.25;10368253;28;20054;-60
2023/10/17 23:20:30;;;;;;;1999.90;999.90;;;;;;;13.75;61.15;101332.63;10368056;28;20052;-60
2023/10/17 23:25:33;;;;;;;1999.90;999.90;;;;;;;13.94;61.57;101325.28;10350485;28;20399;-60
2023/10/17 23:30:35;;;;;;;1999.90;999.90;;;;;;;13.40;60.32;101329.53;10367889;28;20121;-60
2023/10/17 23:35:38;;;;;;;1999.90;999.90;;;;;;;14.00;60.66;101316.13;10369549;28;20053;-60
2023/10/17 23:40:40;;;;;;;1999.90;999.90;;;;;;;14.00;59.07;101310.03;10374060;28;20054;-60
2023/10/17 23:45:42;;;;;;;1999.90;999.90;;;;;;;13.22;63.23;101311.28;10374672;28;20056;-60
2023/10/17 23:50:45;;;;;;;1999.90;999.90;;;;;;;13.46;62.09;101302.88;10356498;28;20071;-60
2023/10/17 23:56:02;;;;;;;1999.90;999.90;;;;;;;13.67;61.16;101290.19;10374556;28;20134;-60
